RYR22PK EGNM-EPGD
Flight info
| Callsign | RYR22PK |
|---|---|
| Flight time | N/A |
| Altitude | 35000 |
| Route | LAMIX L603 LAMSO DCT VALAM DCT EEL DCT BERIM DCT BINKA DCT LUXAL L730 KOSEX |
| Aircraft | B738/M-SDE2E3FGHIRWXY/LB1 |
Departure
| Time | N/A |
|---|---|
| Airport | Leeds Bradford Airport (EGNM) |
Arrival
| Time | 2026-05-05 17:50 |
|---|---|
| Airport | Gdańsk Lech Wałęsa Airport (EPGD) |
| Time | Latitude | Longitude | Altitude | Speed | Heading |
|---|---|---|---|---|---|
| 2026-05-05 17:33 | 54.28224 | 16.48391 | 14441 ft | 374 kts | 77° |
| 2026-05-05 17:33 | 54.28758 | 16.52283 | 14198 ft | 369 kts | 77° |
| 2026-05-05 17:33 | 54.29339 | 16.56524 | 13909 ft | 364 kts | 77° |
| 2026-05-05 17:33 | 54.29914 | 16.60736 | 13620 ft | 359 kts | 77° |
| 2026-05-05 17:34 | 54.30476 | 16.64868 | 13327 ft | 354 kts | 77° |
| 2026-05-05 17:34 | 54.31025 | 16.68907 | 13035 ft | 350 kts | 77° |
| 2026-05-05 17:34 | 54.31570 | 16.72935 | 12742 ft | 345 kts | 77° |
| 2026-05-05 17:34 | 54.32109 | 16.76927 | 12456 ft | 341 kts | 77° |
| 2026-05-05 17:35 | 54.32640 | 16.80869 | 12165 ft | 337 kts | 77° |
| 2026-05-05 17:35 | 54.33162 | 16.84761 | 11890 ft | 333 kts | 77° |
| 2026-05-05 17:35 | 54.33678 | 16.88612 | 11611 ft | 329 kts | 77° |
| 2026-05-05 17:35 | 54.34187 | 16.92420 | 11333 ft | 326 kts | 77° |
| 2026-05-05 17:36 | 54.34689 | 16.96188 | 11053 ft | 323 kts | 77° |
| 2026-05-05 17:36 | 54.35186 | 16.99933 | 10780 ft | 319 kts | 77° |
| 2026-05-05 17:36 | 54.35669 | 17.03576 | 10525 ft | 316 kts | 77° |
| 2026-05-05 17:36 | 54.36155 | 17.07249 | 10281 ft | 313 kts | 77° |
| 2026-05-05 17:37 | 54.36632 | 17.10868 | 10046 ft | 310 kts | 77° |
| 2026-05-05 17:37 | 54.37106 | 17.14469 | 9806 ft | 308 kts | 77° |
| 2026-05-05 17:37 | 54.37575 | 17.18039 | 9543 ft | 305 kts | 77° |
| 2026-05-05 17:37 | 54.38040 | 17.21597 | 9277 ft | 303 kts | 77° |
| 2026-05-05 17:38 | 54.38499 | 17.25111 | 9015 ft | 301 kts | 77° |
| 2026-05-05 17:38 | 54.38953 | 17.28596 | 8758 ft | 298 kts | 77° |
| 2026-05-05 17:38 | 54.39403 | 17.32057 | 8495 ft | 296 kts | 77° |
| 2026-05-05 17:38 | 54.39849 | 17.35495 | 8261 ft | 293 kts | 77° |
| 2026-05-05 17:39 | 54.40287 | 17.38879 | 8031 ft | 289 kts | 77° |
| 2026-05-05 17:39 | 54.40719 | 17.42231 | 7805 ft | 286 kts | 77° |
| 2026-05-05 17:39 | 54.41141 | 17.45504 | 7586 ft | 283 kts | 77° |
| 2026-05-05 17:39 | 54.41565 | 17.48810 | 7386 ft | 281 kts | 77° |
| 2026-05-05 17:40 | 54.41984 | 17.52075 | 7168 ft | 279 kts | 77° |
| 2026-05-05 17:40 | 54.42397 | 17.55308 | 6966 ft | 275 kts | 77° |
| 2026-05-05 17:40 | 54.42803 | 17.58492 | 6771 ft | 272 kts | 77° |
| 2026-05-05 17:40 | 54.43204 | 17.61641 | 6573 ft | 268 kts | 77° |
| 2026-05-05 17:41 | 54.43601 | 17.64765 | 6387 ft | 266 kts | 77° |
| 2026-05-05 17:41 | 54.43992 | 17.67855 | 6179 ft | 264 kts | 77° |
| 2026-05-05 17:41 | 54.44380 | 17.70925 | 5967 ft | 261 kts | 77° |
| 2026-05-05 17:41 | 54.44764 | 17.73967 | 5770 ft | 259 kts | 77° |
| 2026-05-05 17:42 | 54.45139 | 17.76952 | 5601 ft | 252 kts | 77° |
| 2026-05-05 17:42 | 54.45508 | 17.79888 | 5423 ft | 250 kts | 77° |
| 2026-05-05 17:42 | 54.45874 | 17.82803 | 5212 ft | 249 kts | 77° |
| 2026-05-05 17:42 | 54.46237 | 17.85705 | 5034 ft | 247 kts | 77° |
| 2026-05-05 17:43 | 54.46592 | 17.88550 | 4852 ft | 246 kts | 77° |
| 2026-05-05 17:43 | 54.46950 | 17.91414 | 4683 ft | 244 kts | 77° |
| 2026-05-05 17:43 | 54.47302 | 17.94242 | 4507 ft | 240 kts | 77° |
| 2026-05-05 17:43 | 54.47648 | 17.97035 | 4317 ft | 237 kts | 77° |
| 2026-05-05 17:44 | 54.47989 | 17.99791 | 4133 ft | 235 kts | 77° |
| 2026-05-05 17:44 | 54.48269 | 18.02541 | 3930 ft | 232 kts | 90° |
| 2026-05-05 17:44 | 54.47896 | 18.05156 | 3778 ft | 224 kts | 113° |
| 2026-05-05 17:44 | 54.47290 | 18.07622 | 3641 ft | 223 kts | 113° |
| 2026-05-05 17:45 | 54.46694 | 18.10063 | 3526 ft | 218 kts | 113° |
| 2026-05-05 17:45 | 54.46116 | 18.12435 | 3496 ft | 213 kts | 113° |
| 2026-05-05 17:45 | 54.45551 | 18.14756 | 3509 ft | 214 kts | 113° |
| 2026-05-05 17:45 | 54.44980 | 18.17107 | 3463 ft | 216 kts | 113° |
| 2026-05-05 17:46 | 54.44394 | 18.19523 | 3289 ft | 219 kts | 113° |
| 2026-05-05 17:46 | 54.43817 | 18.21900 | 3112 ft | 212 kts | 113° |
| 2026-05-05 17:46 | 54.43263 | 18.24179 | 2940 ft | 202 kts | 113° |
| 2026-05-05 17:46 | 54.42733 | 18.26354 | 2796 ft | 191 kts | 112° |
| 2026-05-05 17:47 | 54.42233 | 18.28408 | 2644 ft | 182 kts | 113° |
| 2026-05-05 17:47 | 54.41755 | 18.30361 | 2516 ft | 174 kts | 112° |
| 2026-05-05 17:47 | 54.41290 | 18.32261 | 2383 ft | 174 kts | 112° |
| 2026-05-05 17:47 | 54.40819 | 18.34182 | 2123 ft | 172 kts | 112° |
| 2026-05-05 17:48 | 54.40374 | 18.35992 | 1926 ft | 158 kts | 111° |
| 2026-05-05 17:48 | 54.39953 | 18.37711 | 1631 ft | 156 kts | 110° |
| 2026-05-05 17:48 | 54.39539 | 18.39401 | 1332 ft | 150 kts | 110° |
| 2026-05-05 17:48 | 54.39133 | 18.41032 | 1090 ft | 151 kts | 110° |
| 2026-05-05 17:49 | 54.38727 | 18.42694 | 842 ft | 151 kts | 110° |
| 2026-05-05 17:49 | 54.38316 | 18.44353 | 626 ft | 151 kts | 111° |
| 2026-05-05 17:49 | 54.37935 | 18.45891 | 456 ft | 144 kts | 111° |
| 2026-05-05 17:49 | 54.37603 | 18.47243 | 458 ft | 108 kts | 113° |
| 2026-05-05 17:50 | 54.37381 | 18.48145 | 472 ft | 44 kts | 112° |
| 2026-05-05 17:50 | 54.37302 | 18.48466 | 481 ft | 19 kts | 103° |
| 2026-05-05 17:50 | 54.37324 | 18.48604 | 485 ft | 5 kts | 30° |
| 2026-05-05 17:50 | 54.37360 | 18.48631 | 483 ft | 6 kts | 22° |
| 2026-05-05 17:51 | 54.37406 | 18.48651 | 489 ft | 8 kts | 355° |
| 2026-05-05 17:51 | 54.37456 | 18.48561 | 485 ft | 15 kts | 292° |
| 2026-05-05 17:51 | 54.37505 | 18.48360 | 476 ft | 21 kts | 293° |
| 2026-05-05 17:51 | 54.37570 | 18.48100 | 471 ft | 26 kts | 293° |
| 2026-05-05 17:52 | 54.37641 | 18.47814 | 467 ft | 25 kts | 293° |
| 2026-05-05 17:52 | 54.37708 | 18.47545 | 460 ft | 24 kts | 293° |
| 2026-05-05 17:52 | 54.37770 | 18.47293 | 459 ft | 23 kts | 293° |
| 2026-05-05 17:52 | 54.37832 | 18.47047 | 459 ft | 22 kts | 293° |
| 2026-05-05 17:53 | 54.37889 | 18.46816 | 458 ft | 21 kts | 293° |
| 2026-05-05 17:53 | 54.37955 | 18.46600 | 458 ft | 19 kts | 324° |
| 2026-05-05 17:53 | 54.38065 | 18.46607 | 459 ft | 12 kts | 332° |
| 2026-05-05 17:53 | 54.38095 | 18.46513 | 456 ft | 9 kts | 291° |
| 2026-05-05 17:54 | 54.38116 | 18.46418 | 459 ft | 7 kts | 292° |
| 2026-05-05 17:54 | 54.38153 | 18.46377 | 459 ft | 4 kts | 1° |
| 2026-05-05 17:54 | 54.38174 | 18.46387 | 459 ft | 0 kts | 21° |